createdAt,value
2019-03-19T00:01:03.163Z,50.70
2019-03-19T00:03:32.683Z,50.79
2019-03-19T00:06:02.234Z,50.63
2019-03-19T00:08:31.936Z,50.58
2019-03-19T00:11:01.505Z,50.83
2019-03-19T00:13:30.990Z,50.96
2019-03-19T00:16:01.161Z,50.86
2019-03-19T00:18:30.707Z,50.93
2019-03-19T00:21:00.281Z,50.70
2019-03-19T00:23:30.034Z,50.81
2019-03-19T00:25:59.594Z,50.84
2019-03-19T00:28:29.182Z,50.67
2019-03-19T00:30:58.930Z,50.73
2019-03-19T00:33:28.639Z,50.63
2019-03-19T00:36:01.235Z,50.87
2019-03-19T00:38:30.771Z,50.92
2019-03-19T00:41:00.264Z,51.01
2019-03-19T00:43:29.816Z,50.98
2019-03-19T00:45:59.723Z,51.19
2019-03-19T00:48:29.479Z,51.32
2019-03-19T00:50:59.048Z,51.10
2019-03-19T00:53:28.574Z,51.48
2019-03-19T00:55:58.147Z,51.48
2019-03-19T00:58:28.087Z,51.57
2019-03-19T01:00:57.772Z,51.36
2019-03-19T01:03:27.914Z,51.46
2019-03-19T01:05:57.627Z,51.46
2019-03-19T01:08:30.110Z,51.56
2019-03-19T01:10:59.793Z,51.62
2019-03-19T01:13:29.405Z,51.76
2019-03-19T01:15:59.300Z,51.51
2019-03-19T01:18:28.914Z,51.56
2019-03-19T01:20:58.443Z,51.59
2019-03-19T01:23:28.272Z,51.65
2019-03-19T01:25:57.990Z,51.69
2019-03-19T01:28:27.545Z,51.76
2019-03-19T01:30:57.556Z,51.63
2019-03-19T01:33:28.170Z,51.88
2019-03-19T01:35:59.051Z,51.82
2019-03-19T01:38:28.949Z,51.82
2019-03-19T01:40:58.502Z,51.84
2019-03-19T01:43:28.079Z,51.84
2019-03-19T01:45:57.748Z,52.04
2019-03-19T01:48:27.453Z,51.81
2019-03-19T01:50:57.301Z,52.03
2019-03-19T01:53:27.059Z,52.07
2019-03-19T01:56:04.834Z,52.05
2019-03-19T01:58:28.408Z,52.27
2019-03-19T02:00:58.070Z,52.27
2019-03-19T02:03:27.795Z,52.56
2019-03-19T02:05:57.352Z,52.59
2019-03-19T02:08:27.111Z,52.74
2019-03-19T02:10:56.926Z,52.57
2019-03-19T02:13:26.596Z,52.43
2019-03-19T02:15:56.471Z,52.59
2019-03-19T02:18:26.021Z,52.36
2019-03-19T02:20:56.281Z,52.41
2019-03-19T02:23:26.033Z,52.38
2019-03-19T02:25:55.590Z,52.42
2019-03-19T02:28:25.220Z,52.57
2019-03-19T02:30:54.917Z,52.41
2019-03-19T02:33:24.433Z,52.57
2019-03-19T02:35:54.495Z,52.54
2019-03-19T02:38:24.106Z,52.58
2019-03-19T02:40:53.719Z,52.67
2019-03-19T02:43:23.222Z,52.81
2019-03-19T02:45:52.636Z,52.60
2019-03-19T02:48:22.227Z,53.10
2019-03-19T02:50:51.689Z,53.09
2019-03-19T02:53:21.193Z,53.34
2019-03-19T02:55:50.801Z,53.14
2019-03-19T02:58:20.225Z,53.45
2019-03-19T03:00:50.115Z,53.51
2019-03-19T03:03:19.649Z,53.51
2019-03-19T03:05:49.340Z,53.63
2019-03-19T03:08:19.144Z,53.57
2019-03-19T03:10:48.746Z,53.42
2019-03-19T03:13:18.378Z,53.45
2019-03-19T03:15:47.904Z,53.69
2019-03-19T03:18:17.399Z,53.75
2019-03-19T03:20:47.158Z,53.79
2019-03-19T03:23:16.958Z,53.76
2019-03-19T03:25:46.602Z,53.88
2019-03-19T03:28:16.224Z,53.89
2019-03-19T03:30:45.818Z,53.86
2019-03-19T03:33:15.340Z,54.33
2019-03-19T03:35:44.900Z,54.20
2019-03-19T03:38:14.528Z,54.20
2019-03-19T03:40:44.015Z,54.25
2019-03-19T03:43:13.686Z,54.24
2019-03-19T03:45:43.196Z,54.20
2019-03-19T03:48:12.679Z,54.14
2019-03-19T03:50:42.193Z,54.22
2019-03-19T03:53:11.624Z,54.32
2019-03-19T03:55:41.359Z,54.34
2019-03-19T03:58:10.918Z,54.39
2019-03-19T04:00:40.449Z,54.32
2019-03-19T04:03:09.988Z,54.37
2019-03-19T04:05:39.570Z,54.19
2019-03-19T04:08:09.252Z,54.23
2019-03-19T04:10:39.080Z,54.25
2019-03-19T04:13:08.568Z,54.22
2019-03-19T04:15:38.226Z,54.33
2019-03-19T04:18:07.775Z,54.27
2019-03-19T04:20:37.371Z,54.33
2019-03-19T04:23:06.932Z,54.35
2019-03-19T04:25:36.480Z,54.30
2019-03-19T04:28:06.146Z,54.30
2019-03-19T04:30:35.672Z,54.32
2019-03-19T04:33:05.505Z,54.33
2019-03-19T04:35:35.034Z,54.28
2019-03-19T04:38:04.644Z,54.22
2019-03-19T04:40:34.212Z,54.32
2019-03-19T04:43:03.775Z,54.58
2019-03-19T04:45:33.218Z,54.64
2019-03-19T04:48:03.674Z,54.64
2019-03-19T04:50:33.683Z,54.63
2019-03-19T04:53:03.285Z,54.74
2019-03-19T04:55:32.704Z,54.80
2019-03-19T04:58:02.338Z,54.91
2019-03-19T05:00:31.827Z,55.05
2019-03-19T05:03:01.447Z,55.08
2019-03-19T05:05:31.003Z,55.21
2019-03-19T05:08:00.515Z,55.35
2019-03-19T05:10:29.969Z,55.35
2019-03-19T05:13:00.789Z,55.27
2019-03-19T05:15:30.477Z,55.41
2019-03-19T05:18:00.313Z,55.38
2019-03-19T05:20:30.060Z,55.38
2019-03-19T05:22:59.539Z,55.39
2019-03-19T05:25:28.970Z,55.33
2019-03-19T05:27:58.538Z,55.40
2019-03-19T05:30:28.294Z,55.37
2019-03-19T05:32:57.986Z,55.34
2019-03-19T05:35:27.545Z,55.13
2019-03-19T05:37:57.413Z,55.28
2019-03-19T05:40:27.203Z,55.16
2019-03-19T05:42:56.925Z,55.08
2019-03-19T05:45:27.036Z,55.15
2019-03-19T05:47:56.892Z,55.22
2019-03-19T05:50:26.412Z,55.03
2019-03-19T05:52:56.262Z,55.00
2019-03-19T05:55:25.890Z,54.95
2019-03-19T05:57:55.457Z,55.02
2019-03-19T06:00:27.001Z,54.96
2019-03-19T06:02:56.903Z,54.87
2019-03-19T06:05:26.472Z,54.69
2019-03-19T06:07:56.728Z,54.35
2019-03-19T06:10:26.400Z,54.55
2019-03-19T06:12:56.193Z,54.38
2019-03-19T06:15:26.405Z,54.27
2019-03-19T06:17:56.263Z,53.98
2019-03-19T06:20:25.944Z,53.67
2019-03-19T06:22:55.533Z,53.09
2019-03-19T06:25:25.225Z,54.12
2019-03-19T06:28:00.344Z,53.90
2019-03-19T06:30:26.500Z,54.21
2019-03-19T06:32:58.631Z,53.98
2019-03-19T06:35:28.849Z,54.11
2019-03-19T06:37:58.523Z,54.20
2019-03-19T06:40:28.437Z,53.86
2019-03-19T06:42:58.331Z,53.90
2019-03-19T06:45:29.434Z,54.03
2019-03-19T06:47:59.081Z,53.96
2019-03-19T06:50:28.594Z,53.82
2019-03-19T06:52:58.639Z,53.68
2019-03-19T06:55:28.379Z,53.54
2019-03-19T06:57:58.624Z,52.56
2019-03-19T07:00:28.524Z,53.04
2019-03-19T07:02:58.263Z,53.30
2019-03-19T07:05:27.975Z,52.95
2019-03-19T07:07:57.558Z,52.91
2019-03-19T07:10:27.401Z,52.94
2019-03-19T07:12:57.053Z,52.55
2019-03-19T07:15:26.749Z,53.02
2019-03-19T07:17:56.349Z,52.68
2019-03-19T07:20:26.251Z,52.47
2019-03-19T07:22:55.934Z,52.57
2019-03-19T07:25:25.566Z,52.48
2019-03-19T07:27:55.179Z,52.32
2019-03-19T08:41:01.490Z,46.85
2019-03-19T08:43:31.211Z,47.89
2019-03-19T08:46:01.348Z,48.41
2019-03-19T08:48:31.148Z,48.17
2019-03-19T08:51:01.103Z,48.22
2019-03-19T08:53:32.542Z,48.23
2019-03-19T08:56:03.185Z,48.14
2019-03-19T08:58:33.396Z,47.90
2019-03-19T09:01:03.425Z,47.58
2019-03-19T09:03:34.648Z,47.24
2019-03-19T09:06:04.653Z,46.01
2019-03-19T09:08:34.694Z,43.52
2019-03-19T09:11:08.354Z,43.87
2019-03-19T09:13:39.030Z,44.74
2019-03-19T09:16:08.759Z,45.01
2019-03-19T09:18:38.901Z,44.89
2019-03-19T09:21:09.453Z,44.85
2019-03-19T09:23:39.316Z,44.55
2019-03-19T09:26:09.450Z,43.24
2019-03-19T09:28:39.377Z,43.24
2019-03-19T09:31:09.144Z,43.33
2019-03-19T09:33:39.013Z,42.74
2019-03-19T09:36:08.600Z,42.74
2019-03-19T09:38:39.132Z,42.99
2019-03-19T09:41:09.383Z,42.50
2019-03-19T09:43:38.963Z,42.34
2019-03-19T09:46:10.046Z,41.64
2019-03-19T09:48:40.323Z,41.33
2019-03-19T09:51:10.547Z,40.89
2019-03-19T09:53:40.868Z,40.80
2019-03-19T09:56:11.926Z,40.94
2019-03-19T09:58:41.799Z,40.97
2019-03-19T10:01:11.912Z,41.19
2019-03-19T10:03:42.397Z,41.19
2019-03-19T10:06:14.416Z,40.26
2019-03-19T10:08:43.606Z,40.74
2019-03-19T10:11:13.459Z,40.18
2019-03-19T10:13:43.318Z,40.69
2019-03-19T10:16:13.847Z,40.64
2019-03-19T10:18:44.001Z,40.36
2019-03-19T10:21:15.013Z,40.05
2019-03-19T10:47:10.023Z,38.08
2019-03-19T10:49:39.667Z,38.08
2019-03-19T10:52:09.897Z,38.37
2019-03-19T10:54:39.418Z,38.75
2019-03-19T10:57:09.666Z,38.64
2019-03-19T10:59:48.859Z,38.97
2019-03-19T11:02:10.658Z,38.88
2019-03-19T11:04:40.480Z,38.48
2019-03-19T11:07:10.875Z,39.10
2019-03-19T11:09:40.872Z,39.10
2019-03-19T11:12:10.616Z,39.15
2019-03-19T11:14:40.317Z,39.15
2019-03-19T11:17:10.325Z,39.31
2019-03-19T11:19:40.601Z,38.77
2019-03-19T11:22:10.696Z,38.85
2019-03-19T11:24:40.740Z,39.70
2019-03-19T11:27:10.687Z,39.44
2019-03-19T11:29:40.154Z,39.44
2019-03-19T11:32:11.086Z,38.75
2019-03-19T11:34:40.972Z,38.46
2019-03-19T11:37:10.917Z,39.48
2019-03-19T11:39:40.607Z,39.48
2019-03-19T11:42:10.749Z,39.36
2019-03-19T11:44:42.842Z,39.23
2019-03-19T11:47:12.185Z,39.21
2019-03-19T11:49:42.339Z,38.23
2019-03-19T11:52:11.982Z,38.23
2019-03-19T11:54:42.233Z,39.01
2019-03-19T11:57:11.757Z,39.40
2019-03-19T11:59:41.599Z,39.75
2019-03-19T12:02:11.580Z,39.92
2019-03-19T12:04:41.204Z,39.92
2019-03-19T12:07:12.113Z,40.22
2019-03-19T12:09:42.016Z,39.88
2019-03-19T12:12:11.813Z,40.25
2019-03-19T12:14:41.527Z,40.62
2019-03-19T12:17:11.284Z,40.92
2019-03-19T12:19:40.863Z,41.36
2019-03-19T12:22:10.680Z,41.64
2019-03-19T12:24:40.147Z,42.01
2019-03-19T12:27:10.023Z,42.05
2019-03-19T12:29:39.697Z,42.13
2019-03-19T12:32:09.361Z,42.56
2019-03-19T12:34:38.937Z,42.19
2019-03-19T12:37:08.873Z,42.11
2019-03-19T12:39:38.775Z,41.27
2019-03-19T12:42:08.352Z,40.67
2019-03-19T12:44:37.949Z,39.48
2019-03-19T12:47:07.524Z,39.48
2019-03-19T12:49:37.182Z,39.44
2019-03-19T12:52:06.801Z,39.44
2019-03-19T12:54:37.937Z,39.52
2019-03-19T12:57:10.551Z,38.85
2019-03-19T12:59:42.595Z,38.97
2019-03-19T13:02:12.984Z,39.10
2019-03-19T13:04:42.526Z,39.10
2019-03-19T13:07:12.578Z,38.13
2019-03-19T13:09:42.792Z,38.62
2019-03-19T13:12:12.827Z,37.38
2019-03-19T13:14:42.817Z,38.05
2019-03-19T13:17:13.163Z,38.44
2019-03-19T14:37:48.693Z,34.71
2019-03-19T14:40:19.306Z,35.37
2019-03-19T14:42:49.355Z,36.74
2019-03-19T14:45:22.467Z,36.74
2019-03-19T14:47:52.115Z,37.29
2019-03-19T14:50:21.926Z,37.70
2019-03-19T14:52:51.739Z,38.04
2019-03-19T14:55:22.158Z,38.37
2019-03-19T14:57:51.894Z,38.04
2019-03-19T15:00:22.270Z,38.51
2019-03-19T15:02:51.882Z,38.81
2019-03-19T15:05:23.224Z,39.30
2019-03-19T15:07:52.934Z,40.01
2019-03-19T15:10:22.611Z,40.01
2019-03-19T15:12:53.978Z,40.15
2019-03-19T15:15:23.719Z,40.41
2019-03-19T15:17:53.735Z,40.72
2019-03-19T15:20:23.248Z,41.05
2019-03-19T15:22:53.448Z,41.05
2019-03-19T15:25:23.229Z,41.10
2019-03-19T15:27:53.637Z,41.63
2019-03-19T15:30:23.325Z,42.03
2019-03-19T15:32:53.043Z,43.01
2019-03-19T15:35:22.673Z,43.61
2019-03-19T15:37:54.918Z,43.61
2019-03-19T15:40:24.601Z,43.79
2019-03-19T15:42:54.749Z,43.75
2019-03-19T15:45:24.484Z,44.19
2019-03-19T15:47:54.131Z,44.62
2019-03-19T15:50:24.016Z,44.15
2019-03-19T15:52:53.748Z,44.24
2019-03-19T15:55:23.397Z,44.12
2019-03-19T15:57:54.230Z,44.29
2019-03-19T16:00:24.083Z,44.29
2019-03-19T16:02:54.659Z,44.28
2019-03-19T16:05:24.358Z,44.59
2019-03-19T16:07:53.972Z,44.68
2019-03-19T16:10:23.932Z,44.68
2019-03-19T16:12:57.142Z,45.03
2019-03-19T16:15:26.751Z,45.03
2019-03-19T16:17:56.272Z,45.17
2019-03-19T16:20:26.059Z,45.37
2019-03-19T16:22:55.793Z,45.01
2019-03-19T16:25:25.714Z,45.01
2019-03-19T16:27:57.091Z,45.27
2019-03-19T16:30:27.889Z,45.44
2019-03-19T16:33:00.103Z,45.69
2019-03-19T16:35:29.740Z,45.69
2019-03-19T16:38:00.591Z,46.38
2019-03-19T16:40:30.148Z,46.82
2019-03-19T16:43:00.611Z,46.82
2019-03-19T16:45:30.220Z,46.95
2019-03-19T16:47:59.930Z,46.93
2019-03-19T16:50:31.777Z,46.93
2019-03-19T16:53:01.487Z,47.40
2019-03-19T16:55:31.160Z,47.88
2019-03-19T16:58:00.995Z,48.07
2019-03-19T17:00:32.556Z,48.10
2019-03-19T17:03:02.262Z,48.50
2019-03-19T17:05:31.846Z,48.48
2019-03-19T17:08:01.760Z,48.65
2019-03-19T17:10:31.422Z,48.91
2019-03-19T17:13:01.331Z,49.60
2019-03-19T17:15:31.190Z,49.60
2019-03-19T17:18:00.806Z,49.71
2019-03-19T17:20:30.431Z,49.71
2019-03-19T17:23:00.651Z,50.24
2019-03-19T17:25:31.601Z,50.46
2019-03-19T17:28:01.478Z,50.75
2019-03-19T17:30:31.320Z,51.19
2019-03-19T17:33:02.490Z,51.60
2019-03-19T17:35:32.114Z,51.60
2019-03-19T17:38:02.468Z,51.92
2019-03-19T17:40:40.976Z,52.33
2019-03-19T17:43:03.624Z,52.33
2019-03-19T17:45:33.385Z,52.80
2019-03-19T17:48:03.050Z,53.28
2019-03-19T17:50:33.480Z,53.42
2019-03-19T17:53:05.515Z,53.50
2019-03-19T17:55:35.284Z,53.83
2019-03-19T17:58:07.079Z,54.63
2019-03-19T18:00:39.853Z,55.65
2019-03-19T18:03:09.671Z,56.90
2019-03-19T18:05:39.349Z,56.90
2019-03-19T18:08:11.665Z,57.61
2019-03-19T18:10:43.912Z,58.88
2019-03-19T18:13:16.941Z,58.88
2019-03-19T18:15:46.552Z,59.33
2019-03-19T18:18:16.674Z,60.14
2019-03-19T18:20:46.274Z,60.44
2019-03-19T18:23:17.761Z,61.20
2019-03-19T18:25:52.369Z,61.39
2019-03-19T18:28:22.273Z,61.85
2019-03-19T18:30:53.388Z,61.95
2019-03-19T18:33:23.569Z,61.84
2019-03-19T18:35:56.171Z,61.84
2019-03-19T18:38:24.485Z,61.97
2019-03-19T18:40:54.127Z,62.32
2019-03-19T18:43:23.931Z,62.58
2019-03-19T18:45:53.797Z,62.66
2019-03-19T18:48:23.776Z,62.71
2019-03-19T18:50:53.457Z,63.03
2019-03-19T18:53:23.008Z,63.03
2019-03-19T18:55:55.872Z,63.24
2019-03-19T18:58:25.530Z,63.36
2019-03-19T19:00:55.308Z,63.35
2019-03-19T19:03:25.011Z,63.46
2019-03-19T19:05:56.134Z,63.59
2019-03-19T19:08:26.556Z,63.51
2019-03-19T19:10:57.429Z,63.37
2019-03-19T19:13:27.939Z,63.53
2019-03-19T19:15:57.903Z,63.53
2019-03-19T19:18:28.106Z,63.27
2019-03-19T19:20:58.608Z,63.74
2019-03-19T19:23:29.091Z,63.74
2019-03-19T19:25:58.844Z,63.80
2019-03-19T19:28:31.128Z,64.00
2019-03-19T19:31:01.645Z,63.93
2019-03-19T19:33:31.492Z,64.16
2019-03-19T19:36:03.263Z,64.12
2019-03-19T19:38:33.221Z,64.07
2019-03-19T19:41:03.278Z,63.90
2019-03-19T19:43:34.480Z,63.44
2019-03-19T19:46:08.769Z,63.27
2019-03-19T19:48:41.891Z,63.16
2019-03-19T19:51:12.612Z,62.90
2019-03-19T19:53:43.135Z,62.98
2019-03-19T19:56:13.285Z,62.85
2019-03-19T19:58:45.419Z,63.06
2019-03-19T20:01:16.316Z,63.28
2019-03-19T20:03:46.962Z,63.54
2019-03-19T20:06:20.243Z,64.79
2019-03-19T20:08:50.980Z,64.46
2019-03-19T20:11:45.017Z,64.44
2019-03-19T20:14:17.440Z,64.38
2019-03-19T20:16:59.877Z,64.49
2019-03-19T20:19:41.171Z,64.79
2019-03-19T20:22:14.917Z,64.85
2019-03-19T20:24:44.776Z,65.17
2019-03-19T20:27:18.413Z,65.57
2019-03-19T20:29:49.676Z,65.77
2019-03-19T20:32:23.910Z,65.92
2019-03-19T20:34:56.027Z,65.92
2019-03-19T20:37:27.652Z,65.97
2019-03-19T20:39:59.424Z,65.99
2019-03-19T20:42:36.990Z,66.00
2019-03-19T20:45:08.866Z,66.24
2019-03-19T20:47:40.781Z,66.40
2019-03-19T20:50:22.500Z,66.42
2019-03-19T20:52:53.466Z,66.58
2019-03-19T20:55:23.760Z,67.02
2019-03-19T20:57:54.837Z,67.04
2019-03-19T21:00:57.494Z,66.95
2019-03-19T21:03:35.533Z,67.09
2019-03-19T21:05:58.960Z,67.15
2019-03-19T21:08:29.167Z,67.39
2019-03-19T21:10:58.879Z,67.61
2019-03-19T21:13:39.030Z,67.83
2019-03-19T21:16:09.285Z,67.92
2019-03-19T21:18:39.869Z,67.97
2019-03-19T21:21:09.768Z,68.20
2019-03-19T21:23:40.487Z,67.68
2019-03-19T21:26:13.543Z,67.68
2019-03-19T21:28:43.493Z,68.02
2019-03-19T21:31:13.504Z,68.22
2019-03-19T21:33:51.146Z,68.49
2019-03-19T21:36:23.056Z,68.63
2019-03-19T21:38:49.242Z,68.65
2019-03-19T21:41:22.772Z,68.74
2019-03-19T21:43:53.461Z,68.82
2019-03-19T21:46:25.607Z,69.08
2019-03-19T21:48:55.354Z,69.36
2019-03-19T21:51:25.453Z,69.27
2019-03-19T21:53:56.047Z,69.31
2019-03-19T21:56:25.743Z,69.41
2019-03-19T21:58:57.784Z,69.95
2019-03-19T22:01:27.420Z,70.06
2019-03-19T22:04:03.130Z,69.88
2019-03-19T22:06:30.442Z,69.88
2019-03-19T22:09:00.246Z,70.11
2019-03-19T22:11:30.029Z,70.52
2019-03-19T22:13:59.895Z,70.75
2019-03-19T22:16:29.843Z,70.77
2019-03-19T22:18:59.533Z,70.79
2019-03-19T22:21:31.390Z,70.94
2019-03-19T22:24:01.063Z,71.15
2019-03-19T22:26:30.588Z,71.28
2019-03-19T22:29:00.155Z,71.47
2019-03-19T22:31:30.828Z,71.55
2019-03-19T22:34:01.074Z,71.67
2019-03-19T22:36:31.027Z,71.82
2019-03-19T22:39:02.930Z,71.92
2019-03-19T22:41:32.681Z,72.08
2019-03-19T22:44:02.541Z,72.23
2019-03-19T22:46:32.586Z,72.16
2019-03-19T22:49:04.266Z,72.23
2019-03-19T22:51:34.336Z,72.26
2019-03-19T22:54:04.084Z,72.18
2019-03-19T22:56:35.382Z,72.05
2019-03-19T22:59:06.360Z,72.19
2019-03-19T23:01:37.647Z,72.02
2019-03-19T23:04:09.884Z,71.90
2019-03-19T23:06:39.526Z,72.02
2019-03-19T23:09:09.938Z,71.92
2019-03-19T23:11:39.724Z,71.95
2019-03-19T23:14:10.077Z,71.88
2019-03-19T23:16:42.324Z,71.97
2019-03-19T23:19:12.188Z,72.07
2019-03-19T23:21:41.818Z,72.01
2019-03-19T23:24:11.554Z,72.19
2019-03-19T23:26:41.035Z,72.31
2019-03-19T23:29:10.982Z,72.31
2019-03-19T23:31:43.347Z,72.14
2019-03-19T23:34:14.333Z,72.16
2019-03-19T23:36:43.971Z,72.16
2019-03-19T23:39:14.598Z,72.58
2019-03-19T23:41:44.162Z,72.66
2019-03-19T23:44:16.182Z,72.64
2019-03-19T23:46:46.386Z,72.73
2019-03-19T23:49:15.906Z,72.72
2019-03-19T23:51:45.472Z,72.60
2019-03-19T23:54:15.129Z,73.01
2019-03-19T23:56:45.001Z,72.73
2019-03-19T23:59:14.791Z,72.96
